Time;durP1;ratioP1;P1;durP2;ratioP2;P2;SDS_P1;SDS_P2;PMS_P1;PMS_P2;Temp;Humidity;BMP_temperature;BMP_pressure;BME280_temperature;BME280_humidity;BME280_pressure;Samples;Min_cycle;Max_cycle;Signal;HPM_P1;HPM_P2
2022/11/11 00:02:54;0.00;0.00;0.62;0.00;0.00;0.62;1.77;0.80;;;27.10;26.80;;;;;;2260112;61;20459;-74
2022/11/11 00:06:01;0.00;0.00;0.62;0.00;0.00;0.62;1.50;0.80;;;27.10;26.80;;;;;;2260732;61;20400;-74
2022/11/11 00:09:05;0.00;0.00;0.62;0.00;0.00;0.62;1.50;0.80;;;27.10;26.80;;;;;;2259877;61;20805;-74
2022/11/11 00:12:09;0.00;0.00;0.62;0.00;0.00;0.62;1.60;0.90;;;27.10;26.80;;;;;;2260026;61;20981;-74
2022/11/11 00:15:13;0.00;0.00;0.62;0.00;0.00;0.62;1.87;0.90;;;27.10;26.80;;;;;;2260420;61;20896;-72
2022/11/11 00:25:04;0.00;0.00;0.62;0.00;0.00;0.62;1.97;0.90;;;27.10;27.40;;;;;;2260175;61;20904;-65
2022/11/11 00:28:10;0.00;0.00;0.62;0.00;0.00;0.62;1.37;0.80;;;27.00;26.90;;;;;;2260421;61;20392;-65
2022/11/11 00:31:14;0.00;0.00;0.62;0.00;0.00;0.62;1.40;0.80;;;27.00;26.90;;;;;;2259729;61;20364;-65
2022/11/11 00:34:17;0.00;0.00;0.62;0.00;0.00;0.62;1.80;0.93;;;27.00;26.90;;;;;;2259887;61;20457;-66
2022/11/11 00:37:21;0.00;0.00;0.62;0.00;0.00;0.62;1.40;0.90;;;27.00;26.90;;;;;;2260125;61;20412;-66
2022/11/11 00:40:24;0.00;0.00;0.62;0.00;0.00;0.62;1.30;0.70;;;27.00;26.80;;;;;;2259818;61;20361;-67
2022/11/11 00:43:29;0.00;0.00;0.62;0.00;0.00;0.62;3.83;0.87;;;27.00;26.80;;;;;;2260445;61;20435;-65
2022/11/11 00:53:20;0.00;0.00;0.62;0.00;0.00;0.62;2.57;1.07;;;27.00;26.80;;;;;;2260002;61;20396;-65
2022/11/11 00:56:24;0.00;0.00;0.62;0.00;0.00;0.62;1.90;0.83;;;27.00;26.80;;;;;;2259645;61;20357;-65
2022/11/11 00:59:29;0.00;0.00;0.62;0.00;0.00;0.62;1.67;0.90;;;27.00;26.80;;;;;;2260268;61;20532;-64
2022/11/11 01:02:33;0.00;0.00;0.62;0.00;0.00;0.62;1.77;0.90;;;27.00;26.80;;;;;;2260161;61;20397;-65
2022/11/11 01:05:37;0.00;0.00;0.62;0.00;0.00;0.62;1.30;0.70;;;27.00;26.80;;;;;;2260499;61;20360;-65
2022/11/11 01:08:41;0.00;0.00;0.62;0.00;0.00;0.62;1.70;0.90;;;27.00;27.30;;;;;;2260021;61;20899;-64
2022/11/11 01:11:45;0.00;0.00;0.62;0.00;0.00;0.62;2.00;0.83;;;27.00;26.70;;;;;;2259983;61;20380;-65
2022/11/11 01:14:49;0.00;0.00;0.62;0.00;0.00;0.62;2.07;1.00;;;27.00;26.70;;;;;;2260245;61;20365;-64
2022/11/11 01:17:53;0.00;0.00;0.62;0.00;0.00;0.62;1.70;1.33;;;26.90;26.60;;;;;;2259783;61;21058;-65
2022/11/11 01:20:58;0.00;0.00;0.62;0.00;0.00;0.62;2.23;1.00;;;26.90;26.50;;;;;;2260048;61;20935;-64
2022/11/11 01:24:02;0.00;0.00;0.62;0.00;0.00;0.62;1.93;0.80;;;26.90;26.50;;;;;;2259999;61;20400;-65
2022/11/11 01:27:05;0.00;0.00;0.62;0.00;0.00;0.62;1.93;1.13;;;26.90;26.50;;;;;;2260350;61;20360;-64
2022/11/11 01:30:12;0.00;0.00;0.62;0.00;0.00;0.62;1.80;1.03;;;26.80;26.40;;;;;;2260152;61;20858;-65
2022/11/11 01:33:16;0.00;0.00;0.62;0.00;0.00;0.62;6.60;1.20;;;26.80;26.40;;;;;;2259547;61;20447;-66
2022/11/11 01:36:22;0.00;0.00;0.62;0.00;0.00;0.62;3.20;1.40;;;26.80;26.30;;;;;;2260016;61;20957;-65
2022/11/11 01:39:26;0.00;0.00;0.62;0.00;0.00;0.62;2.30;1.43;;;26.80;26.30;;;;;;2259644;61;20380;-64
2022/11/11 01:42:29;0.00;0.00;0.62;0.00;0.00;0.62;1.60;0.90;;;26.70;26.80;;;;;;2259928;61;20377;-63
2022/11/11 01:45:58;0.00;0.00;0.62;0.00;0.00;0.62;1.47;0.90;;;26.70;26.30;;;;;;2260235;61;20471;-64
2022/11/11 01:49:24;0.00;0.00;0.62;0.00;0.00;0.62;2.30;1.27;;;26.70;26.30;;;;;;2260086;61;20818;-65
2022/11/11 01:52:31;0.00;0.00;0.62;0.00;0.00;0.62;1.50;1.00;;;26.70;26.20;;;;;;2259851;61;20373;-66
2022/11/11 01:55:35;0.00;0.00;0.62;0.00;0.00;0.62;3.10;1.00;;;26.70;26.30;;;;;;2259819;61;20419;-63
2022/11/11 01:58:39;0.00;0.00;0.62;0.00;0.00;0.62;2.43;1.27;;;26.60;26.20;;;;;;2259940;61;20796;-65
2022/11/11 02:01:46;0.00;0.00;0.62;0.00;0.00;0.62;1.83;1.10;;;26.60;26.20;;;;;;2259549;61;20431;-64
2022/11/11 02:08:31;0.00;0.00;0.62;0.00;0.00;0.62;1.90;1.07;;;26.50;26.10;;;;;;2259938;61;20357;-64
2022/11/11 02:15:01;0.00;0.00;0.62;0.00;0.00;0.62;2.20;1.33;;;26.50;26.00;;;;;;2260010;61;20361;-65
2022/11/11 02:18:06;0.00;0.00;0.62;0.00;0.00;0.62;1.97;1.10;;;26.50;26.00;;;;;;2259663;61;20389;-65
2022/11/11 02:21:14;0.00;0.00;0.62;0.00;0.00;0.62;1.50;0.90;;;26.40;26.00;;;;;;2259944;61;20384;-65
2022/11/11 02:24:21;0.00;0.00;0.62;0.00;0.00;0.62;3.00;1.30;;;26.40;26.00;;;;;;2259254;61;20365;-65
2022/11/11 02:27:28;0.00;0.00;0.62;0.00;0.00;0.62;4.10;1.20;;;26.30;25.90;;;;;;2260018;61;20405;-66
2022/11/11 02:30:32;0.00;0.00;0.62;0.00;0.00;0.62;3.17;1.30;;;26.30;26.00;;;;;;2255756;61;20436;-63
2022/11/11 02:33:36;0.00;0.00;0.62;0.00;0.00;0.62;2.00;1.10;;;26.30;26.00;;;;;;2255850;61;20948;-65
2022/11/11 02:36:41;0.00;0.00;0.62;0.00;0.00;0.62;1.70;1.10;;;26.20;25.90;;;;;;2255671;61;20446;-65
2022/11/11 02:39:48;0.00;0.00;0.62;0.00;0.00;0.62;1.70;1.27;;;26.20;25.90;;;;;;2255513;61;20401;-66
2022/11/11 02:42:52;0.00;0.00;0.62;0.00;0.00;0.62;1.60;1.00;;;26.20;25.90;;;;;;2255718;61;20382;-66
2022/11/11 02:45:56;0.00;0.00;0.62;0.00;0.00;0.62;1.70;1.13;;;26.20;25.90;;;;;;2255432;61;20365;-65
2022/11/11 02:49:00;0.00;0.00;0.62;0.00;0.00;0.62;2.10;1.20;;;26.20;25.90;;;;;;2255808;61;20818;-64
2022/11/11 02:52:03;0.00;0.00;0.62;0.00;0.00;0.62;2.20;1.20;;;26.10;25.90;;;;;;2255911;61;20423;-65
2022/11/11 02:55:10;0.00;0.00;0.62;0.00;0.00;0.62;1.73;1.10;;;26.10;25.90;;;;;;2255938;61;20389;-64
2022/11/11 02:58:14;0.00;0.00;0.62;0.00;0.00;0.62;2.13;1.37;;;26.10;25.90;;;;;;2256070;61;20493;-64
2022/11/11 03:01:22;0.00;0.00;0.62;0.00;0.00;0.62;2.37;1.27;;;26.00;26.40;;;;;;2255673;61;20366;-65
2022/11/11 03:04:26;0.00;0.00;0.62;0.00;0.00;0.62;1.70;1.00;;;26.10;25.90;;;;;;2256505;61;20437;-66
2022/11/11 03:07:29;0.00;0.00;0.62;0.00;0.00;0.62;1.97;1.13;;;26.00;25.90;;;;;;2256337;61;20362;-65
2022/11/11 03:10:34;0.00;0.00;0.62;0.00;0.00;0.62;2.40;1.40;;;26.00;25.80;;;;;;2256624;61;20376;-64
2022/11/11 03:13:37;0.00;0.00;0.62;0.00;0.00;0.62;3.30;1.30;;;26.00;25.80;;;;;;2256719;61;20389;-63
2022/11/11 03:23:28;0.00;0.00;0.62;0.00;0.00;0.62;3.80;1.30;;;25.90;25.80;;;;;;2255882;61;20826;-64
2022/11/11 03:26:33;0.00;0.00;0.62;0.00;0.00;0.62;2.20;1.30;;;25.90;25.70;;;;;;2256494;61;20365;-65
2022/11/11 03:29:36;0.00;0.00;0.62;0.00;0.00;0.62;3.40;1.23;;;25.80;25.70;;;;;;2259672;61;20365;-65
2022/11/11 03:32:40;0.00;0.00;0.62;0.00;0.00;0.62;3.00;1.17;;;25.80;25.70;;;;;;2260310;61;20496;-64
2022/11/11 03:35:45;0.00;0.00;0.62;0.00;0.00;0.62;1.73;1.10;;;25.80;25.70;;;;;;2260323;61;20876;-65
2022/11/11 03:38:49;0.00;0.00;0.62;0.00;0.00;0.62;1.40;0.90;;;25.80;25.80;;;;;;2259887;61;20920;-65
2022/11/11 03:41:53;0.00;0.00;0.62;0.00;0.00;0.62;2.33;1.10;;;25.70;25.70;;;;;;2259997;61;20412;-65
2022/11/11 03:44:57;0.00;0.00;0.62;0.00;0.00;0.62;2.60;1.50;;;25.70;25.70;;;;;;2259987;61;20416;-64
2022/11/11 03:48:00;0.00;0.00;0.62;0.00;0.00;0.62;1.90;1.10;;;25.70;25.70;;;;;;2260729;61;20365;-65
2022/11/11 03:51:04;0.00;0.00;0.62;0.00;0.00;0.62;4.17;1.20;;;25.70;25.80;;;;;;2259908;61;20347;-66
2022/11/11 03:54:08;0.00;0.00;0.62;0.00;0.00;0.62;2.60;1.30;;;25.60;25.80;;;;;;2260256;61;20805;-66
2022/11/11 03:57:31;0.00;0.00;0.62;0.00;0.00;0.62;2.83;1.33;;;25.60;25.80;;;;;;2260296;61;20364;-65
2022/11/11 04:00:35;0.00;0.00;0.62;0.00;0.00;0.62;2.67;1.23;;;25.50;25.70;;;;;;2259980;61;20369;-64
2022/11/11 04:10:39;0.00;0.00;0.62;0.00;0.00;0.62;3.93;1.23;;;25.40;25.60;;;;;;2260519;61;20369;-66
2022/11/11 04:17:10;0.00;0.00;0.62;0.00;0.00;0.62;3.10;1.50;;;25.40;25.60;;;;;;2260402;61;20928;-66
2022/11/11 04:23:36;0.00;0.00;0.62;0.00;0.00;0.62;1.87;1.03;;;25.30;25.60;;;;;;2259985;61;20430;-65
2022/11/11 04:26:39;0.00;0.00;0.62;0.00;0.00;0.62;2.47;1.50;;;25.20;25.60;;;;;;2260329;61;20360;-64
2022/11/11 04:29:46;0.00;0.00;0.62;0.00;0.00;0.62;2.70;1.67;;;25.20;25.70;;;;;;2259867;61;20819;-64
2022/11/11 04:32:50;0.00;0.00;0.62;0.00;0.00;0.62;2.00;1.20;;;25.20;25.80;;;;;;2260221;61;20408;-65
2022/11/11 04:35:53;0.00;0.00;0.62;0.00;0.00;0.62;2.00;1.10;;;25.30;25.90;;;;;;2260113;61;20380;-65
2022/11/11 04:42:21;0.00;0.00;0.62;0.00;0.00;0.62;5.20;1.60;;;25.20;25.80;;;;;;2260384;61;20381;-65
2022/11/11 04:45:34;0.00;0.00;0.62;0.00;0.00;0.62;2.00;1.30;;;25.20;25.80;;;;;;2260088;61;20496;-66
2022/11/11 04:48:38;0.00;0.00;0.62;0.00;0.00;0.62;2.70;1.50;;;25.20;25.90;;;;;;2260145;61;20369;-65
2022/11/11 04:58:30;0.00;0.00;0.62;0.00;0.00;0.62;1.87;1.20;;;25.20;25.80;;;;;;2259816;61;20389;-65
2022/11/11 05:04:58;0.00;0.00;0.62;0.00;0.00;0.62;2.27;1.20;;;25.20;25.80;;;;;;2259858;61;20360;-66
2022/11/11 05:11:26;0.00;0.00;0.62;0.00;0.00;0.62;2.37;1.27;;;25.20;25.80;;;;;;2260100;61;20380;-66
2022/11/11 05:21:20;0.00;0.00;0.62;0.00;0.00;0.62;3.60;1.40;;;25.20;25.80;;;;;;2259445;61;20377;-66
2022/11/11 05:27:46;0.00;0.00;0.62;0.00;0.00;0.62;2.60;1.40;;;25.20;25.80;;;;;;2259927;61;20365;-65
2022/11/11 05:30:50;0.00;0.00;0.62;0.00;0.00;0.62;2.00;1.10;;;25.20;25.80;;;;;;2259811;61;20389;-65
2022/11/11 05:33:55;0.00;0.00;0.62;0.00;0.00;0.62;2.80;1.20;;;25.20;25.80;;;;;;2260212;61;20360;-66
2022/11/11 05:36:58;0.00;0.00;0.62;0.00;0.00;0.62;1.80;1.13;;;25.20;25.80;;;;;;2259608;61;20945;-66
2022/11/11 05:40:02;0.00;0.00;0.62;0.00;0.00;0.62;1.57;1.00;;;25.10;25.80;;;;;;2260248;61;20365;-65
2022/11/11 05:43:06;0.00;0.00;0.62;0.00;0.00;0.62;2.40;1.63;;;25.10;25.80;;;;;;2259920;61;20936;-66
2022/11/11 05:46:09;0.00;0.00;0.62;0.00;0.00;0.62;2.10;1.07;;;25.20;25.80;;;;;;2260213;61;20911;-65
2022/11/11 05:49:14;0.00;0.00;0.62;0.00;0.00;0.62;2.20;1.40;;;25.10;25.80;;;;;;2259770;61;20356;-66
2022/11/11 05:52:18;0.00;0.00;0.62;0.00;0.00;0.62;2.27;1.10;;;25.10;25.80;;;;;;2259541;61;20385;-66
2022/11/11 05:55:22;0.00;0.00;0.62;0.00;0.00;0.62;6.90;1.50;;;25.10;25.80;;;;;;2260003;61;20439;-65
2022/11/11 05:58:25;0.00;0.00;0.62;0.00;0.00;0.62;2.03;1.30;;;25.10;25.80;;;;;;2259429;61;20442;-64
2022/11/11 06:01:30;0.00;0.00;0.62;0.00;0.00;0.62;2.57;1.40;;;25.10;25.70;;;;;;2260025;61;20457;-66
2022/11/11 06:04:35;0.00;0.00;0.62;0.00;0.00;0.62;2.00;1.40;;;25.10;25.70;;;;;;2259865;61;20976;-64
2022/11/11 06:07:39;0.00;0.00;0.62;0.00;0.00;0.62;2.60;1.40;;;25.10;25.70;;;;;;2259753;61;20381;-66
2022/11/11 06:10:42;0.00;0.00;0.62;0.00;0.00;0.62;3.80;1.60;;;25.10;25.70;;;;;;2259903;61;20368;-65
2022/11/11 06:13:47;0.00;0.00;0.62;0.00;0.00;0.62;2.00;1.40;;;25.10;25.70;;;;;;2259475;61;20349;-66
2022/11/11 06:16:50;0.00;0.00;0.62;0.00;0.00;0.62;2.90;1.47;;;25.00;25.70;;;;;;2259736;61;20365;-65
2022/11/11 06:19:55;0.00;0.00;0.62;0.00;0.00;0.62;1.70;1.13;;;25.00;25.70;;;;;;2259800;61;20807;-65
2022/11/11 06:22:59;0.00;0.00;0.62;0.00;0.00;0.62;2.40;1.63;;;25.00;25.70;;;;;;2259863;61;20388;-65
2022/11/11 06:26:13;0.00;0.00;0.62;0.00;0.00;0.62;4.00;1.73;;;25.00;25.70;;;;;;2260003;61;20881;-66
2022/11/11 06:29:16;0.00;0.00;0.62;0.00;0.00;0.62;3.20;1.67;;;25.00;25.70;;;;;;2260232;61;20376;-65
2022/11/11 06:32:20;0.00;0.00;0.62;0.00;0.00;0.62;4.37;1.53;;;25.00;25.70;;;;;;2260502;61;20872;-67
2022/11/11 06:35:25;0.00;0.00;0.62;0.00;0.00;0.62;2.20;1.23;;;25.00;25.70;;;;;;2260119;61;20364;-66
2022/11/11 06:38:28;0.00;0.00;0.62;0.00;0.00;0.62;2.30;1.50;;;25.00;25.70;;;;;;2260304;61;20788;-69
2022/11/11 06:41:32;0.00;0.00;0.62;0.00;0.00;0.62;2.87;1.60;;;25.00;25.70;;;;;;2260055;61;20518;-74
2022/11/11 06:44:36;0.00;0.00;0.62;0.00;0.00;0.62;2.60;1.67;;;25.00;25.70;;;;;;2260017;61;20452;-71
2022/11/11 06:47:41;0.00;0.00;0.62;0.00;0.00;0.62;2.57;1.40;;;24.90;25.70;;;;;;2260696;61;20364;-67
2022/11/11 06:50:46;0.00;0.00;0.62;0.00;0.00;0.62;3.40;1.90;;;24.90;25.70;;;;;;2259827;61;20479;-69
2022/11/11 06:53:50;0.00;0.00;0.62;0.00;0.00;0.62;2.07;1.37;;;24.90;25.70;;;;;;2260488;61;20361;-71
2022/11/11 06:56:54;0.00;0.00;0.62;0.00;0.00;0.62;2.03;1.67;;;24.90;25.70;;;;;;2259921;61;20442;-68
2022/11/11 06:59:57;0.00;0.00;0.62;0.00;0.00;0.62;4.60;1.90;;;24.90;25.70;;;;;;2260535;61;20388;-68
2022/11/11 07:03:02;0.00;0.00;0.62;0.00;0.00;0.62;4.53;1.90;;;24.90;25.70;;;;;;2260561;61;20403;-68
2022/11/11 07:06:07;0.00;0.00;0.62;0.00;0.00;0.62;8.90;2.20;;;24.90;25.70;;;;;;2260362;61;20492;-69
2022/11/11 07:09:10;0.00;0.00;0.62;0.00;0.00;0.62;3.33;2.00;;;24.90;25.70;;;;;;2260568;61;20885;-70
2022/11/11 07:12:14;0.00;0.00;0.62;0.00;0.00;0.62;2.43;1.97;;;24.90;25.80;;;;;;2259759;61;20539;-68
2022/11/11 07:15:18;0.00;0.00;0.62;0.00;0.00;0.62;4.20;2.50;;;24.90;25.80;;;;;;2260882;61;20468;-72
2022/11/11 07:18:21;0.00;0.00;0.62;0.00;0.00;0.62;3.00;1.93;;;24.90;25.80;;;;;;2260386;61;20368;-69
2022/11/11 07:21:27;0.00;0.00;0.62;0.00;0.00;0.62;3.13;1.90;;;24.90;25.80;;;;;;2365389;45;20774;-71
2022/11/11 07:24:30;0.00;0.00;0.62;0.00;0.00;0.62;4.03;2.13;;;24.90;25.80;;;;;;2260670;61;20384;-68
2022/11/11 07:27:36;0.00;0.00;0.62;0.00;0.00;0.62;3.07;1.93;;;24.90;25.80;;;;;;2259701;61;20360;-67
2022/11/11 07:30:41;0.00;0.00;0.62;0.00;0.00;0.62;3.77;2.20;;;24.90;25.80;;;;;;2260528;61;20795;-65
2022/11/11 07:33:44;0.00;0.00;0.62;0.00;0.00;0.62;2.77;1.90;;;24.90;25.80;;;;;;2260438;61;20916;-68
2022/11/11 07:36:49;0.00;0.00;0.62;0.00;0.00;0.62;2.93;2.07;;;24.90;25.80;;;;;;2260137;61;20760;-68
2022/11/11 07:39:53;0.00;0.00;0.62;0.00;0.00;0.62;3.00;1.93;;;24.90;25.80;;;;;;2260076;61;20388;-68
2022/11/11 07:42:57;0.00;0.00;0.62;0.00;0.00;0.62;3.33;2.07;;;24.90;25.80;;;;;;2259964;61;20463;-68
2022/11/11 07:46:00;0.00;0.00;0.62;0.00;0.00;0.62;2.80;1.93;;;24.90;25.80;;;;;;2260552;61;20364;-68
2022/11/11 07:49:04;0.00;0.00;0.62;0.00;0.00;0.62;3.03;2.30;;;24.90;25.80;;;;;;2260032;61;20507;-68
2022/11/11 07:52:09;0.00;0.00;0.62;0.00;0.00;0.62;3.30;2.07;;;24.90;25.80;;;;;;2260634;61;20396;-70
2022/11/11 07:55:13;0.00;0.00;0.62;0.00;0.00;0.62;3.83;1.80;;;24.90;25.80;;;;;;2259961;61;20381;-70
2022/11/11 07:58:16;0.00;0.00;0.62;0.00;0.00;0.62;3.50;2.53;;;24.90;25.80;;;;;;2259947;61;20420;-68
2022/11/11 08:01:20;0.00;0.00;0.62;0.00;0.00;0.62;2.23;1.60;;;24.90;25.90;;;;;;2260376;61;20903;-68
2022/11/11 08:04:24;0.00;0.00;0.62;0.00;0.00;0.62;3.33;1.90;;;24.90;25.90;;;;;;2259816;61;20412;-67
2022/11/11 08:07:29;0.00;0.00;0.62;0.00;0.00;0.62;3.27;1.70;;;24.90;25.90;;;;;;2260719;61;20372;-68
2022/11/11 08:10:33;0.00;0.00;0.62;0.00;0.00;0.62;3.13;1.70;;;24.90;25.90;;;;;;2260073;61;20549;-68
2022/11/11 08:13:39;0.00;0.00;0.62;0.00;0.00;0.62;2.93;2.03;;;25.00;26.00;;;;;;2260093;61;20385;-67
2022/11/11 08:16:43;0.00;0.00;0.62;0.00;0.00;0.62;3.40;1.77;;;24.90;26.00;;;;;;2260053;61;20947;-68
2022/11/11 08:19:47;0.00;0.00;0.62;0.00;0.00;0.62;2.67;1.83;;;25.00;26.10;;;;;;2259812;61;20775;-68
2022/11/11 08:22:54;0.00;0.00;0.62;0.00;0.00;0.62;2.70;1.50;;;25.00;26.10;;;;;;2260422;61;20381;-70
2022/11/11 08:25:58;0.00;0.00;0.62;0.00;0.00;0.62;2.20;1.27;;;25.00;26.20;;;;;;2260223;61;20368;-73
2022/11/11 08:29:02;0.00;0.00;0.62;0.00;0.00;0.62;3.30;1.50;;;25.00;26.20;;;;;;2260283;61;20507;-67
2022/11/11 08:32:06;0.00;0.00;0.62;0.00;0.00;0.62;2.17;1.70;;;25.00;26.20;;;;;;2259952;61;20783;-73
2022/11/11 08:35:09;0.00;0.00;0.62;0.00;0.00;0.62;2.77;1.73;;;25.00;26.20;;;;;;2259992;61;20364;-69
2022/11/11 08:38:14;0.00;0.00;0.62;0.00;0.00;0.62;2.53;1.30;;;25.10;26.20;;;;;;2260226;61;20363;-69
2022/11/11 08:41:20;0.00;0.00;0.62;0.00;0.00;0.62;2.57;1.63;;;25.10;26.30;;;;;;2259741;61;20361;-68
2022/11/11 08:44:24;0.00;0.00;0.62;0.00;0.00;0.62;2.60;1.87;;;25.10;26.20;;;;;;2260640;61;20361;-68
2022/11/11 08:47:27;0.00;0.00;0.62;0.00;0.00;0.62;3.00;1.40;;;25.10;26.20;;;;;;2260126;61;20360;-68
2022/11/11 08:50:31;0.00;0.00;0.62;0.00;0.00;0.62;2.07;1.30;;;25.20;26.30;;;;;;2259950;61;20424;-68
2022/11/11 08:53:36;0.00;0.00;0.62;0.00;0.00;0.62;3.23;1.60;;;25.20;26.30;;;;;;2260167;61;20400;-67
2022/11/11 08:56:39;0.00;0.00;0.62;0.00;0.00;0.62;2.23;1.37;;;25.20;26.30;;;;;;2259956;61;20369;-71
2022/11/11 08:59:43;0.00;0.00;0.62;0.00;0.00;0.62;1.80;1.30;;;25.20;26.40;;;;;;2260041;61;20388;-67
2022/11/11 09:02:46;0.00;0.00;0.62;0.00;0.00;0.62;2.80;1.50;;;25.30;26.40;;;;;;2260215;61;20388;-70
2022/11/11 09:05:50;0.00;0.00;0.62;0.00;0.00;0.62;2.00;1.33;;;25.30;26.40;;;;;;2260166;61;20888;-70
2022/11/11 09:08:55;0.00;0.00;0.62;0.00;0.00;0.62;2.47;1.63;;;25.30;26.40;;;;;;2260220;61;20397;-67
2022/11/11 09:11:59;0.00;0.00;0.62;0.00;0.00;0.62;3.20;1.50;;;25.40;26.50;;;;;;2259692;61;20426;-69
2022/11/11 09:15:04;0.00;0.00;0.62;0.00;0.00;0.62;2.60;1.73;;;25.40;26.50;;;;;;2260268;61;20361;-70
2022/11/11 09:18:09;0.00;0.00;0.62;0.00;0.00;0.62;3.10;1.50;;;25.40;26.40;;;;;;2259629;61;20368;-68
2022/11/11 09:21:13;0.00;0.00;0.62;0.00;0.00;0.62;2.10;1.40;;;25.50;26.50;;;;;;2260531;61;20360;-69
2022/11/11 09:24:19;0.00;0.00;0.62;0.00;0.00;0.62;2.57;1.63;;;25.50;26.50;;;;;;2260207;61;20922;-68
2022/11/11 09:27:23;0.00;0.00;0.62;0.00;0.00;0.62;2.30;1.43;;;25.50;26.50;;;;;;2259967;61;20400;-69
2022/11/11 09:30:28;0.00;0.00;0.62;0.00;0.00;0.62;2.17;1.40;;;25.50;26.50;;;;;;2566589;45;20362;-68
2022/11/11 09:33:32;0.00;0.00;0.62;0.00;0.00;0.62;1.70;1.20;;;25.50;26.50;;;;;;2255935;61;20439;-69
2022/11/11 09:36:35;0.00;0.00;0.62;0.00;0.00;0.62;3.00;1.33;;;25.60;26.60;;;;;;2260298;61;20437;-69
2022/11/11 09:39:40;0.00;0.00;0.62;0.00;0.00;0.62;2.33;1.70;;;25.60;26.50;;;;;;2259668;61;20389;-65
2022/11/11 09:42:54;0.00;0.00;0.62;0.00;0.00;0.62;2.10;1.47;;;25.70;26.60;;;;;;2260200;61;20388;-68
2022/11/11 09:46:14;0.00;0.00;0.62;0.00;0.00;0.62;3.17;1.43;;;25.70;26.60;;;;;;2260086;61;20364;-68
2022/11/11 09:49:34;0.00;0.00;0.62;0.00;0.00;0.62;2.97;1.10;;;25.70;26.60;;;;;;2259333;61;20411;-68
2022/11/11 09:52:45;0.00;0.00;0.62;0.00;0.00;0.62;2.63;1.33;;;25.70;26.50;;;;;;2260112;61;20423;-68
2022/11/11 09:55:57;0.00;0.00;0.62;0.00;0.00;0.62;1.67;1.07;;;25.80;26.60;;;;;;2259649;61;20369;-68
2022/11/11 09:59:07;0.00;0.00;0.62;0.00;0.00;0.62;2.40;1.30;;;25.80;26.60;;;;;;2259729;61;20388;-68
2022/11/11 10:02:25;0.00;0.00;0.62;0.00;0.00;0.62;1.80;1.10;;;25.80;26.60;;;;;;2259611;61;20820;-68
2022/11/11 10:05:36;0.00;0.00;0.62;0.00;0.00;0.62;2.30;1.20;;;25.80;26.50;;;;;;2260179;61;20392;-68
2022/11/11 10:08:47;0.00;0.00;0.62;0.00;0.00;0.62;2.00;1.13;;;25.90;26.60;;;;;;2259786;61;20411;-67
2022/11/11 10:12:02;0.00;0.00;0.62;0.00;0.00;0.62;2.10;1.40;;;25.90;26.70;;;;;;2259819;61;20967;-68
2022/11/11 10:15:11;0.00;0.00;0.62;0.00;0.00;0.62;2.10;1.13;;;26.00;26.70;;;;;;2260121;61;20365;-68
2022/11/11 10:18:32;0.00;0.00;0.62;0.00;0.00;0.62;2.87;1.40;;;26.00;26.70;;;;;;2259773;61;20361;-67
2022/11/11 10:21:43;0.00;0.00;0.62;0.00;0.00;0.62;2.13;1.00;;;26.00;26.70;;;;;;2260017;61;20916;-67
2022/11/11 10:24:58;0.00;0.00;0.62;0.00;0.00;0.62;4.60;1.30;;;26.00;26.70;;;;;;2259621;61;20353;-66
2022/11/11 10:28:03;0.00;0.00;0.62;0.00;0.00;0.62;1.80;1.20;;;26.10;26.80;;;;;;2260401;61;20361;-66
2022/11/11 10:31:15;0.00;0.00;0.62;0.00;0.00;0.62;1.83;1.10;;;26.20;26.80;;;;;;2260018;61;20411;-68
2022/11/11 10:34:19;0.00;0.00;0.62;0.00;0.00;0.62;2.20;1.20;;;26.20;26.90;;;;;;2259869;61;20364;-70
2022/11/11 10:37:34;0.00;0.00;0.62;0.00;0.00;0.62;1.80;1.10;;;26.20;26.90;;;;;;2259842;61;20407;-69
2022/11/11 10:40:47;0.00;0.00;0.62;0.00;0.00;0.62;2.00;1.20;;;26.20;26.90;;;;;;2259155;61;20485;-67
2022/11/11 10:43:52;0.00;0.00;0.62;0.00;0.00;0.62;2.03;1.10;;;26.30;26.90;;;;;;2259862;61;20407;-70
2022/11/11 10:47:07;0.00;0.00;0.62;0.00;0.00;0.62;2.03;1.20;;;26.30;26.90;;;;;;2259470;61;20356;-67
2022/11/11 10:50:20;0.00;0.00;0.62;0.00;0.00;0.62;4.37;1.33;;;26.40;26.90;;;;;;2259988;61;20357;-69
2022/11/11 10:53:34;0.00;0.00;0.62;0.00;0.00;0.62;2.47;1.50;;;26.40;26.80;;;;;;2260141;61;20472;-68
2022/11/11 10:56:44;0.00;0.00;0.62;0.00;0.00;0.62;2.30;1.60;;;26.50;26.80;;;;;;2259636;61;20364;-70
2022/11/11 10:59:55;0.00;0.00;0.62;0.00;0.00;0.62;3.10;1.27;;;26.50;26.80;;;;;;2260132;61;20423;-69
2022/11/11 11:03:07;0.00;0.00;0.62;0.00;0.00;0.62;2.07;1.40;;;26.60;26.80;;;;;;2259725;61;20381;-67
2022/11/11 11:06:17;0.00;0.00;0.62;0.00;0.00;0.62;1.70;1.03;;;26.60;26.80;;;;;;2260099;61;20889;-70
2022/11/11 11:09:26;0.00;0.00;0.62;0.00;0.00;0.62;4.30;1.70;;;26.60;26.80;;;;;;2259599;61;20388;-70
2022/11/11 11:12:38;0.00;0.00;0.62;0.00;0.00;0.62;1.67;1.27;;;26.70;26.80;;;;;;2260143;61;20922;-70
2022/11/11 11:15:52;0.00;0.00;0.62;0.00;0.00;0.62;2.10;1.13;;;26.70;26.70;;;;;;2260157;61;20361;-68
2022/11/11 11:19:17;0.00;0.00;0.62;0.00;0.00;0.62;1.90;1.50;;;26.80;26.70;;;;;;2260438;61;20802;-68
2022/11/11 11:22:21;0.00;0.00;0.62;0.00;0.00;0.62;1.83;1.07;;;26.80;26.70;;;;;;2260266;61;20423;-70
2022/11/11 11:25:30;0.00;0.00;0.62;0.00;0.00;0.62;2.13;1.20;;;26.90;26.60;;;;;;2260085;61;20407;-71
2022/11/11 11:28:34;0.00;0.00;0.62;0.00;0.00;0.62;1.80;1.10;;;26.90;26.60;;;;;;2260608;61;20360;-68
2022/11/11 11:31:41;0.00;0.00;0.62;0.00;0.00;0.62;2.87;1.40;;;27.00;26.50;;;;;;2260300;61;20415;-68
2022/11/11 11:34:48;0.00;0.00;0.62;0.00;0.00;0.62;4.53;1.40;;;27.00;26.50;;;;;;2260842;61;20404;-66
2022/11/11 11:37:53;0.00;0.00;0.62;0.00;0.00;0.62;2.50;1.27;;;27.00;26.40;;;;;;2260328;61;20439;-69
2022/11/11 11:40:57;0.00;0.00;0.62;0.00;0.00;0.62;2.27;1.33;;;27.00;26.40;;;;;;2260225;61;20451;-71
2022/11/11 11:44:00;0.00;0.00;0.62;0.00;0.00;0.62;1.93;1.13;;;27.10;26.40;;;;;;2260642;61;20392;-71
2022/11/11 11:47:25;0.00;0.00;0.62;0.00;0.00;0.62;2.00;1.20;;;27.10;26.40;;;;;;2259962;61;20356;-69
2022/11/11 11:50:39;0.00;0.00;0.62;0.00;0.00;0.62;2.43;1.40;;;27.10;26.30;;;;;;2260534;61;20376;-71
2022/11/11 11:54:01;0.00;0.00;0.62;0.00;0.00;0.62;1.63;1.00;;;27.20;26.30;;;;;;2260063;61;20381;-67
2022/11/11 11:57:23;0.00;0.00;0.62;0.00;0.00;0.62;2.10;1.20;;;27.20;26.30;;;;;;2260582;61;20420;-70
2022/11/11 12:00:30;0.00;0.00;0.62;0.00;0.00;0.62;2.00;1.20;;;27.20;26.30;;;;;;2260262;61;20389;-70
2022/11/11 12:04:17;0.00;0.00;0.62;0.00;0.00;0.62;2.70;1.07;;;27.20;26.20;;;;;;2260684;61;20431;-70
2022/11/11 12:07:49;0.00;0.00;0.62;0.00;0.00;0.62;1.70;1.10;;;27.20;26.20;;;;;;2259793;61;20877;-70
2022/11/11 12:11:00;0.00;0.00;0.62;0.00;0.00;0.62;1.80;1.07;;;27.20;26.10;;;;;;2260225;61;20388;-70
2022/11/11 12:14:29;0.00;0.00;0.62;0.00;0.00;0.62;1.73;1.00;;;27.30;26.10;;;;;;2260148;61;20401;-69
2022/11/11 12:17:53;0.00;0.00;0.62;0.00;0.00;0.62;2.03;1.13;;;27.30;26.10;;;;;;2260080;61;20392;-70
2022/11/11 12:21:07;0.00;0.00;0.62;0.00;0.00;0.62;1.80;1.10;;;27.30;26.60;;;;;;2260185;61;20388;-70
2022/11/11 12:24:37;0.00;0.00;0.62;0.00;0.00;0.62;2.20;1.30;;;27.30;26.10;;;;;;2259980;61;20931;-70
2022/11/11 12:27:51;0.00;0.00;0.62;0.00;0.00;0.62;2.40;1.10;;;27.30;26.00;;;;;;2259907;61;20431;-70
2022/11/11 12:31:16;0.00;0.00;0.62;0.00;0.00;0.62;2.73;1.10;;;27.40;26.00;;;;;;2255592;61;20358;-70
2022/11/11 12:34:47;0.00;0.00;0.62;0.00;0.00;0.62;1.60;0.90;;;27.40;26.00;;;;;;2256352;61;20874;-70
2022/11/11 12:38:06;0.00;0.00;0.62;0.00;0.00;0.62;1.70;0.90;;;27.40;26.00;;;;;;2255532;61;20399;-69
2022/11/11 12:41:21;0.00;0.00;0.62;0.00;0.00;0.62;1.93;1.17;;;27.40;26.00;;;;;;2256204;61;20905;-70
2022/11/11 12:44:36;0.00;0.00;0.62;0.00;0.00;0.62;2.07;1.00;;;27.40;26.00;;;;;;2256325;61;20898;-70
2022/11/11 12:47:50;0.00;0.00;0.62;0.00;0.00;0.62;1.50;0.80;;;27.40;26.00;;;;;;2256273;61;20358;-69
2022/11/11 12:51:03;0.00;0.00;0.62;0.00;0.00;0.62;1.60;1.10;;;27.40;26.00;;;;;;2256175;61;20373;-69
2022/11/11 12:54:24;0.00;0.00;0.62;0.00;0.00;0.62;1.43;0.80;;;27.40;25.90;;;;;;2256023;61;20374;-67
2022/11/11 12:57:38;0.00;0.00;0.62;0.00;0.00;0.62;2.00;1.10;;;27.50;26.10;;;;;;2256012;61;20362;-69
2022/11/11 13:00:56;0.00;0.00;0.62;0.00;0.00;0.62;1.50;0.90;;;27.50;26.10;;;;;;2255591;61;20410;-66
2022/11/11 13:04:28;0.00;0.00;0.62;0.00;0.00;0.62;1.50;0.80;;;27.50;26.20;;;;;;2256281;61;20413;-67
2022/11/11 13:08:06;0.00;0.00;0.62;0.00;0.00;0.62;1.50;0.90;;;27.50;26.20;;;;;;2255790;61;20885;-67
2022/11/11 13:11:20;0.00;0.00;0.62;0.00;0.00;0.62;1.53;0.87;;;27.50;26.30;;;;;;2250645;61;20417;-67
2022/11/11 13:14:44;0.00;0.00;0.62;0.00;0.00;0.62;3.70;0.90;;;27.60;26.50;;;;;;2256390;61;20833;-66
2022/11/11 13:17:48;0.00;0.00;0.62;0.00;0.00;0.62;1.60;0.90;;;27.60;26.40;;;;;;2256589;61;20366;-67
2022/11/11 13:20:57;0.00;0.00;0.62;0.00;0.00;0.62;1.37;0.80;;;27.60;26.40;;;;;;2255385;61;20389;-69
2022/11/11 13:24:01;0.00;0.00;0.62;0.00;0.00;0.62;1.40;0.80;;;27.70;26.50;;;;;;2255997;61;20413;-66
2022/11/11 13:27:14;0.00;0.00;0.62;0.00;0.00;0.62;1.60;0.80;;;27.60;26.40;;;;;;2256165;61;20371;-64
2022/11/11 13:30:40;0.00;0.00;0.62;0.00;0.00;0.62;2.00;0.90;;;27.70;26.40;;;;;;2534203;45;20412;-68